createdAt,value
2019-06-01T00:00:53.628Z,11.48
2019-06-01T00:03:24.720Z,14.13
2019-06-01T00:05:55.642Z,16.70
2019-06-01T00:08:26.643Z,10.78
2019-06-01T00:10:57.788Z,11.25
2019-06-01T00:13:28.812Z,27.45
2019-06-01T00:15:59.997Z,18.77
2019-06-01T00:18:31.198Z,19.17
2019-06-01T00:21:02.531Z,17.10
2019-06-01T00:23:33.594Z,16.95
2019-06-01T00:26:04.858Z,17.15
2019-06-01T00:28:36.008Z,17.48
2019-06-01T00:31:07.046Z,11.43
2019-06-01T00:33:38.237Z,11.15
2019-06-01T00:36:09.234Z,10.55
2019-06-01T00:38:41.492Z,12.13
2019-06-01T00:41:13.086Z,12.13
2019-06-01T00:43:44.241Z,11.10
2019-06-01T00:46:15.336Z,12.28
2019-06-01T00:48:46.265Z,13.60
2019-06-01T00:51:17.230Z,11.63
2019-06-01T00:53:49.532Z,17.23
2019-06-01T00:56:21.000Z,10.88
2019-06-01T00:58:52.087Z,15.30
2019-06-01T01:01:23.274Z,14.45
2019-06-01T01:03:54.584Z,15.60
2019-06-01T01:06:25.749Z,12.98
2019-06-01T01:08:56.880Z,16.60
2019-06-01T01:11:28.143Z,14.38
2019-06-01T01:13:59.187Z,12.82
2019-06-01T01:16:30.276Z,10.85
2019-06-01T01:19:01.451Z,13.10
2019-06-01T01:21:32.664Z,19.60
2019-06-01T01:24:03.832Z,15.50
2019-06-01T01:26:34.982Z,21.20
2019-06-01T01:29:07.119Z,22.52
2019-06-01T01:31:38.261Z,23.32
2019-06-01T01:34:09.437Z,22.40
2019-06-01T01:36:40.516Z,24.15
2019-06-01T01:39:11.935Z,23.75
2019-06-01T01:41:43.133Z,27.90
2019-06-01T01:44:14.308Z,17.52
2019-06-01T01:46:45.625Z,19.92
2019-06-01T01:49:18.928Z,21.97
2019-06-01T01:51:50.436Z,24.18
2019-06-01T01:54:21.686Z,20.82
2019-06-01T01:56:54.050Z,12.70
2019-06-01T01:59:25.589Z,15.72
2019-06-01T02:01:58.652Z,15.45
2019-06-01T02:04:29.987Z,17.20
2019-06-01T02:07:02.377Z,27.87
2019-06-01T02:09:34.076Z,30.90
2019-06-01T02:12:05.238Z,26.68
2019-06-01T02:14:36.484Z,19.85
2019-06-01T02:17:07.607Z,27.75
2019-06-01T02:19:38.940Z,32.10
2019-06-01T02:22:10.171Z,18.75
2019-06-01T02:24:41.414Z,22.95
2019-06-01T02:27:12.741Z,27.20
2019-06-01T02:29:44.071Z,24.63
2019-06-01T02:32:15.244Z,19.98
2019-06-01T02:34:46.377Z,23.87
2019-06-01T02:37:17.711Z,24.02
2019-06-01T02:39:48.824Z,21.73
2019-06-01T02:42:20.152Z,23.12
2019-06-01T02:44:52.468Z,27.70
2019-06-01T02:47:23.631Z,25.17
2019-06-01T02:49:55.643Z,25.50
2019-06-01T02:52:27.103Z,25.25
2019-06-01T02:54:59.589Z,19.70
2019-06-01T02:57:30.980Z,20.68
2019-06-01T03:00:02.707Z,24.30
2019-06-01T03:02:34.521Z,23.45
2019-06-01T03:05:07.672Z,25.10
2019-06-01T03:07:41.554Z,18.85
2019-06-01T03:10:14.211Z,18.75
2019-06-01T03:12:45.542Z,21.12
2019-06-01T03:15:17.813Z,17.82
2019-06-01T03:17:49.285Z,15.40
2019-06-01T03:20:20.462Z,21.82
2019-06-01T03:22:52.821Z,19.23
2019-06-01T03:25:24.376Z,16.55
2019-06-01T03:27:57.013Z,18.37
2019-06-01T03:30:45.108Z,16.95
2019-06-01T03:33:14.275Z,14.05
2019-06-01T03:35:46.137Z,15.63
2019-06-01T03:38:17.248Z,16.05
2019-06-01T03:40:48.477Z,17.80
2019-06-01T03:43:20.091Z,19.60
2019-06-01T03:45:51.187Z,16.50
2019-06-01T03:48:22.390Z,11.43
2019-06-01T03:50:53.490Z,14.83
2019-06-01T03:53:24.689Z,19.25
2019-06-01T03:55:55.870Z,22.93
2019-06-01T03:58:27.050Z,20.25
2019-06-01T04:00:59.228Z,20.20
2019-06-01T04:03:30.439Z,19.92
2019-06-01T04:06:01.687Z,26.02
2019-06-01T04:08:32.829Z,21.27
2019-06-01T04:11:04.018Z,19.55
2019-06-01T04:13:35.267Z,22.70
2019-06-01T04:16:06.436Z,25.02
2019-06-01T04:18:37.611Z,22.70
2019-06-01T04:21:10.184Z,15.72
2019-06-01T04:23:41.566Z,17.87
2019-06-01T04:26:12.668Z,19.70
2019-06-01T04:28:46.069Z,16.75
2019-06-01T04:31:17.305Z,20.62
2019-06-01T04:33:48.498Z,21.55
2019-06-01T04:36:19.756Z,13.65
2019-06-01T04:38:50.947Z,12.65
2019-06-01T04:41:22.198Z,15.60
2019-06-01T04:43:53.430Z,13.50
2019-06-01T04:46:24.749Z,19.37
2019-06-01T04:49:15.043Z,49.75
2019-06-01T04:51:46.362Z,22.07
2019-06-01T04:55:18.131Z,46.95
2019-06-01T04:57:17.529Z,19.32
2019-06-01T05:00:28.208Z,17.65
2019-06-01T05:03:05.484Z,17.73
2019-06-01T05:05:32.370Z,14.85
2019-06-01T05:08:07.042Z,13.15
2019-06-01T05:10:38.548Z,16.55
2019-06-01T05:13:09.795Z,12.05
2019-06-01T05:15:41.182Z,12.95
2019-06-01T05:18:19.736Z,16.02
2019-06-01T05:20:51.376Z,11.33
2019-06-01T05:23:22.375Z,10.88
2019-06-01T05:25:53.460Z,14.73
2019-06-01T05:28:24.392Z,12.30
2019-06-01T05:30:55.531Z,12.50
2019-06-01T05:33:36.922Z,11.65
2019-06-01T05:35:59.274Z,12.75
2019-06-01T05:38:30.504Z,10.72
2019-06-01T05:41:01.590Z,16.17
2019-06-01T05:43:32.834Z,13.05
2019-06-01T05:46:04.028Z,14.55
2019-06-01T05:48:35.474Z,14.70
2019-06-01T05:51:06.735Z,17.50
2019-06-01T05:53:37.801Z,18.07
2019-06-01T05:56:10.474Z,14.25
2019-06-01T05:58:49.826Z,12.80
2019-06-01T06:01:22.782Z,17.67
2019-06-01T06:03:54.223Z,15.95
2019-06-01T06:06:25.492Z,13.72
2019-06-01T06:08:58.721Z,15.78
2019-06-01T06:11:29.602Z,11.18
2019-06-01T06:14:00.656Z,16.37
2019-06-01T06:16:31.766Z,17.62
2019-06-01T06:19:02.941Z,14.10
2019-06-01T06:21:33.983Z,16.55
2019-06-01T06:24:05.432Z,13.50
2019-06-01T06:26:36.456Z,12.50
2019-06-01T06:29:07.457Z,17.12
2019-06-01T06:31:38.757Z,14.03
2019-06-01T06:34:09.771Z,20.48
2019-06-01T06:36:40.791Z,16.67
2019-06-01T06:39:11.758Z,16.25
2019-06-01T06:41:42.727Z,15.80
2019-06-01T06:44:14.422Z,15.78
2019-06-01T06:46:45.687Z,16.10
2019-06-01T06:49:17.115Z,15.08
2019-06-01T06:51:48.120Z,20.10
2019-06-01T06:54:21.959Z,14.00
2019-06-01T06:56:54.399Z,13.10
2019-06-01T06:59:28.366Z,15.08
2019-06-01T07:01:59.321Z,12.25
2019-06-01T07:04:30.342Z,13.55
2019-06-01T07:07:01.355Z,13.58
2019-06-01T07:09:32.274Z,9.15
2019-06-01T07:12:03.221Z,13.75
2019-06-01T07:14:34.130Z,15.08
2019-06-01T07:17:05.046Z,13.55
2019-06-01T07:19:36.017Z,15.25
2019-06-01T07:22:06.970Z,14.00
2019-06-01T07:24:37.997Z,12.40
2019-06-01T07:27:09.012Z,15.65
2019-06-01T07:29:40.096Z,11.00
2019-06-01T07:32:11.970Z,10.30
2019-06-01T07:34:43.196Z,10.05
2019-06-01T07:37:14.256Z,11.25
2019-06-01T07:39:45.181Z,12.47
2019-06-01T07:42:16.249Z,14.95
2019-06-01T07:44:47.218Z,15.65
2019-06-01T07:47:18.163Z,12.37
2019-06-01T07:49:49.137Z,12.28
2019-06-01T07:52:20.227Z,9.95
2019-06-01T07:54:51.221Z,14.73
2019-06-01T07:57:23.500Z,9.70
2019-06-01T07:59:55.336Z,17.73
2019-06-01T08:02:29.474Z,12.60
2019-06-01T08:05:02.234Z,15.98
2019-06-01T08:07:33.238Z,13.50
2019-06-01T08:10:06.114Z,12.63
2019-06-01T08:12:37.238Z,13.80
2019-06-01T08:15:08.632Z,8.75
2019-06-01T08:17:39.599Z,10.55
2019-06-01T08:20:11.471Z,8.70
2019-06-01T08:22:42.394Z,7.08
2019-06-01T08:25:14.365Z,12.18
2019-06-01T08:27:45.343Z,9.13
2019-06-01T08:30:16.372Z,10.25
2019-06-01T08:32:47.337Z,10.65
2019-06-01T08:35:18.316Z,10.75
2019-06-01T08:37:49.259Z,9.63
2019-06-01T08:40:20.212Z,11.35
2019-06-01T08:42:51.164Z,9.83
2019-06-01T08:45:23.420Z,8.63
2019-06-01T08:47:54.652Z,10.50
2019-06-01T08:50:25.749Z,7.47
2019-06-01T08:52:56.753Z,8.68
2019-06-01T08:55:28.063Z,10.75
2019-06-01T08:57:59.080Z,18.42
2019-06-01T09:00:30.591Z,9.68
2019-06-01T09:03:01.835Z,13.22
2019-06-01T09:05:33.159Z,7.10
2019-06-01T09:08:04.144Z,7.58
2019-06-01T09:10:35.623Z,14.33
2019-06-01T09:13:06.709Z,9.00
2019-06-01T09:15:37.918Z,5.28
2019-06-01T09:18:08.845Z,8.40
2019-06-01T09:20:40.278Z,8.35
2019-06-01T09:23:11.281Z,8.55
2019-06-01T09:25:42.296Z,7.90
2019-06-01T09:28:13.187Z,8.15
2019-06-01T09:30:44.583Z,9.03
2019-06-01T09:33:15.556Z,6.00
2019-06-01T09:35:55.620Z,8.90
2019-06-01T09:38:19.378Z,6.35
2019-06-01T09:40:50.459Z,7.55
2019-06-01T09:43:21.796Z,8.13
2019-06-01T09:45:53.615Z,7.50
2019-06-01T09:48:24.919Z,8.88
2019-06-01T09:50:55.874Z,7.42
2019-06-01T09:53:28.673Z,7.05
2019-06-01T09:55:59.547Z,7.62
2019-06-01T09:58:30.470Z,5.22
2019-06-01T10:01:01.615Z,7.37
2019-06-01T10:03:34.319Z,9.58
2019-06-01T10:06:06.496Z,6.33
2019-06-01T10:08:38.170Z,6.70
2019-06-01T10:11:09.485Z,6.28
2019-06-01T10:13:40.499Z,9.60
2019-06-01T10:16:11.440Z,9.08
2019-06-01T10:18:43.133Z,9.13
2019-06-01T10:21:33.949Z,6.97
2019-06-01T10:24:06.461Z,5.78
2019-06-01T10:26:42.621Z,8.65
2019-06-01T10:29:13.298Z,11.83
2019-06-01T10:31:44.437Z,7.80
2019-06-01T10:34:15.642Z,8.95
2019-06-01T10:36:49.880Z,9.10
2019-06-01T10:39:27.781Z,7.90
2019-06-01T10:42:14.720Z,6.95
2019-06-01T10:44:48.331Z,4.60
2019-06-01T10:47:20.330Z,7.75
2019-06-01T10:49:51.613Z,5.75
2019-06-01T10:52:22.750Z,9.93
2019-06-01T10:54:53.997Z,9.33
2019-06-01T10:57:25.107Z,10.55
2019-06-01T10:59:56.222Z,7.72
2019-06-01T11:02:27.733Z,8.53
2019-06-01T11:04:58.947Z,8.90
2019-06-01T11:07:30.101Z,5.92
2019-06-01T11:10:01.474Z,8.53
2019-06-01T11:12:34.907Z,9.28
2019-06-01T11:15:07.614Z,9.58
2019-06-01T11:17:39.241Z,9.25
2019-06-01T11:20:11.155Z,9.40
2019-06-01T11:22:43.603Z,7.40
2019-06-01T11:25:15.343Z,10.72
2019-06-01T11:27:46.469Z,6.97
2019-06-01T11:30:17.717Z,4.55
2019-06-01T11:32:49.263Z,6.72
2019-06-01T11:35:20.505Z,4.65
2019-06-01T11:37:51.679Z,8.68
2019-06-01T11:40:22.915Z,8.25
2019-06-01T11:42:54.098Z,5.12
2019-06-01T11:45:25.220Z,4.65
2019-06-01T11:47:56.584Z,7.08
2019-06-01T11:50:27.873Z,5.85
2019-06-01T11:52:59.219Z,7.45
2019-06-01T11:55:30.379Z,6.83
2019-06-01T11:58:01.558Z,3.80
2019-06-01T12:00:32.838Z,5.03
2019-06-01T12:03:03.972Z,5.97
2019-06-01T12:05:35.780Z,4.53
2019-06-01T12:08:07.285Z,4.92
2019-06-01T12:10:38.931Z,6.37
2019-06-01T12:13:10.222Z,4.17
2019-06-01T12:15:42.283Z,4.10
2019-06-01T12:18:13.563Z,7.05
2019-06-01T12:20:44.982Z,8.28
2019-06-01T12:23:16.338Z,7.28
2019-06-01T12:25:48.483Z,6.08
2019-06-01T12:28:32.316Z,7.70
2019-06-01T12:31:13.075Z,6.47
2019-06-01T12:33:46.364Z,4.33
2019-06-01T12:36:17.905Z,4.87
2019-06-01T12:38:55.080Z,4.87
2019-06-01T12:41:26.226Z,5.28
2019-06-01T12:44:12.787Z,8.55
2019-06-01T12:46:44.099Z,5.22
2019-06-01T12:49:15.330Z,5.33
2019-06-01T12:51:47.049Z,7.17
2019-06-01T12:54:18.284Z,8.58
2019-06-01T12:56:54.702Z,9.20
2019-06-01T12:59:23.749Z,7.37
2019-06-01T13:01:54.874Z,8.85
2019-06-01T13:04:26.015Z,8.28
2019-06-01T13:06:57.124Z,6.20
2019-06-01T13:09:28.302Z,7.80
2019-06-01T13:11:59.497Z,4.75
2019-06-01T13:14:30.547Z,5.75
2019-06-01T13:17:07.088Z,6.60
2019-06-01T13:19:34.438Z,8.28
2019-06-01T13:22:05.547Z,6.28
2019-06-01T13:24:38.228Z,7.87
2019-06-01T13:27:09.422Z,5.12
2019-06-01T13:29:41.741Z,8.18
2019-06-01T13:32:13.010Z,5.65
2019-06-01T13:34:44.712Z,7.17
2019-06-01T13:37:15.910Z,5.60
2019-06-01T13:39:54.222Z,10.45
2019-06-01T13:42:21.814Z,8.78
2019-06-01T13:44:55.536Z,7.30
2019-06-01T13:47:27.103Z,9.70
2019-06-01T13:49:59.187Z,8.80
2019-06-01T13:52:30.370Z,11.60
2019-06-01T13:55:01.602Z,10.88
2019-06-01T13:57:32.729Z,6.05
2019-06-01T14:00:06.266Z,5.10
2019-06-01T14:02:37.922Z,5.80
2019-06-01T14:05:09.370Z,4.33
2019-06-01T14:07:40.543Z,4.40
2019-06-01T14:10:11.918Z,4.30
2019-06-01T14:12:43.045Z,9.70
2019-06-01T14:15:14.825Z,7.87
2019-06-01T14:17:46.083Z,5.28
2019-06-01T14:20:17.225Z,6.35
2019-06-01T14:22:49.723Z,5.30
2019-06-01T14:25:21.018Z,7.85
2019-06-01T14:27:52.268Z,7.25
2019-06-01T14:30:24.243Z,6.80
2019-06-01T14:32:56.939Z,4.80
2019-06-01T14:35:28.312Z,5.87
2019-06-01T14:37:59.769Z,7.58
2019-06-01T14:40:32.543Z,6.17
2019-06-01T14:43:03.653Z,5.55
2019-06-01T14:45:34.735Z,7.10
2019-06-01T14:48:06.938Z,5.70
2019-06-01T14:50:38.099Z,8.28
2019-06-01T14:53:12.197Z,5.78
2019-06-01T14:55:43.477Z,6.30
2019-06-01T14:58:14.663Z,9.65
2019-06-01T15:00:45.867Z,10.82
2019-06-01T15:03:17.512Z,6.05
2019-06-01T15:05:48.682Z,6.87
2019-06-01T15:08:19.766Z,6.17
2019-06-01T15:10:52.946Z,5.28
2019-06-01T15:13:23.775Z,7.30
2019-06-01T15:15:55.601Z,8.13
2019-06-01T15:18:27.101Z,6.28
2019-06-01T15:20:58.272Z,13.45
2019-06-01T15:23:29.427Z,9.20
2019-06-01T15:26:00.610Z,6.45
2019-06-01T15:28:31.836Z,10.55
2019-06-01T15:31:03.705Z,10.90
2019-06-01T15:33:36.237Z,12.18
2019-06-01T15:36:08.808Z,13.18
2019-06-01T15:38:40.032Z,15.83
2019-06-01T15:41:11.194Z,19.90
2019-06-01T15:43:42.479Z,11.00
2019-06-01T15:46:13.741Z,9.23
2019-06-01T15:48:46.564Z,10.68
2019-06-01T15:51:17.725Z,11.75
2019-06-01T15:53:48.913Z,11.60
2019-06-01T15:56:23.556Z,14.05
2019-06-01T15:58:55.389Z,12.40
2019-06-01T16:01:25.933Z,13.98
2019-06-01T16:03:57.388Z,15.38
2019-06-01T16:06:30.473Z,16.12
2019-06-01T16:09:01.818Z,11.08
2019-06-01T16:11:32.981Z,9.30
2019-06-01T16:14:04.117Z,10.45
2019-06-01T16:16:35.184Z,13.20
2019-06-01T16:19:08.042Z,12.98
2019-06-01T16:21:39.342Z,14.25
2019-06-01T16:24:10.545Z,11.08
2019-06-01T16:26:41.724Z,12.90
2019-06-01T16:29:12.844Z,16.93
2019-06-01T16:31:44.139Z,12.43
2019-06-01T16:34:15.375Z,17.40
2019-06-01T16:36:46.645Z,11.90
2019-06-01T16:39:17.806Z,10.95
2019-06-01T16:42:02.132Z,12.85
2019-06-01T16:44:33.536Z,15.60
2019-06-01T16:47:06.021Z,18.92
2019-06-01T16:49:37.630Z,15.23
2019-06-01T16:52:08.720Z,10.88
2019-06-01T16:54:39.826Z,13.18
2019-06-01T16:57:11.299Z,10.55
2019-06-01T16:59:42.543Z,13.43
2019-06-01T17:02:13.743Z,11.20
2019-06-01T17:04:45.095Z,11.93
2019-06-01T17:07:23.621Z,13.88
2019-06-01T17:10:23.980Z,13.70
2019-06-01T17:12:48.007Z,12.40
2019-06-01T17:15:19.326Z,16.50
2019-06-01T17:17:50.427Z,9.98
2019-06-01T17:20:45.257Z,14.90
2019-06-01T17:23:27.339Z,9.10
2019-06-01T17:25:49.235Z,12.98
2019-06-01T17:28:20.469Z,12.15
2019-06-01T17:30:53.962Z,15.78
2019-06-01T17:33:25.082Z,14.87
2019-06-01T17:35:56.306Z,17.32
2019-06-01T17:38:27.365Z,9.68
2019-06-01T17:41:02.210Z,11.73
2019-06-01T17:43:33.811Z,10.20
2019-06-01T17:46:05.322Z,15.30
2019-06-01T17:48:36.544Z,12.25
2019-06-01T17:51:08.595Z,15.60
2019-06-01T17:53:39.893Z,12.45
2019-06-01T17:56:18.139Z,11.15
2019-06-01T17:58:57.205Z,16.62
2019-06-01T18:01:30.127Z,15.20
2019-06-01T18:07:23.651Z,14.58
2019-06-01T18:10:12.171Z,12.13
2019-06-01T18:12:46.977Z,11.38
2019-06-01T18:15:18.264Z,13.00
2019-06-01T18:17:53.121Z,13.85
2019-06-01T18:20:28.346Z,12.98
2019-06-01T18:23:00.348Z,14.25
2019-06-01T18:25:31.575Z,13.88
2019-06-01T18:28:02.703Z,13.25
2019-06-01T18:30:34.009Z,12.45
2019-06-01T18:33:05.214Z,13.05
2019-06-01T18:35:36.352Z,16.37
2019-06-01T18:38:09.800Z,12.40
2019-06-01T18:40:41.252Z,16.95
2019-06-01T18:43:15.068Z,14.58
2019-06-01T18:45:47.199Z,19.25
2019-06-01T18:48:20.718Z,18.45
2019-06-01T18:50:52.131Z,15.40
2019-06-01T18:53:23.583Z,16.25
2019-06-01T18:55:56.302Z,16.93
2019-06-01T18:58:27.541Z,16.87
2019-06-01T19:00:58.887Z,19.52
2019-06-01T19:03:30.340Z,15.03
2019-06-01T19:06:05.132Z,14.63
2019-06-01T19:08:40.406Z,34.18
2019-06-01T19:11:28.311Z,19.40
2019-06-01T19:13:47.293Z,14.98
2019-06-01T19:16:23.456Z,15.05
2019-06-01T19:18:56.187Z,14.68
2019-06-01T19:21:29.086Z,12.95
2019-06-01T19:24:00.477Z,12.98
2019-06-01T19:26:31.654Z,17.90
2019-06-01T19:29:02.941Z,19.02
2019-06-01T19:31:34.211Z,15.30
2019-06-01T19:34:06.742Z,11.35
2019-06-01T19:36:39.565Z,12.43
2019-06-01T19:39:11.150Z,15.38
2019-06-01T19:41:45.194Z,16.25
2019-06-01T19:44:15.794Z,14.78
2019-06-01T19:46:47.419Z,17.60
2019-06-01T19:49:19.078Z,19.12
2019-06-01T19:51:50.856Z,23.47
2019-06-01T19:54:22.182Z,23.80
2019-06-01T19:56:54.166Z,30.30
2019-06-01T19:59:25.413Z,25.68
2019-06-01T20:01:56.643Z,36.70
2019-06-01T20:04:27.903Z,43.25
2019-06-01T20:06:59.272Z,35.30
2019-06-01T20:09:30.545Z,71.90
2019-06-01T20:12:05.635Z,28.95
2019-06-01T20:14:34.659Z,33.33
2019-06-01T20:17:05.771Z,37.45
2019-06-01T20:19:36.925Z,51.63
2019-06-01T20:22:08.180Z,49.67
2019-06-01T20:24:39.310Z,36.25
2019-06-01T20:27:11.319Z,41.90
2019-06-01T20:29:44.339Z,31.87
2019-06-01T20:32:15.933Z,25.95
2019-06-01T20:34:47.122Z,19.30
2019-06-01T20:37:18.348Z,17.07
2019-06-01T20:39:52.191Z,15.53
2019-06-01T20:42:32.010Z,12.43
2019-06-01T20:44:56.190Z,13.05
2019-06-01T20:47:27.427Z,11.73
2019-06-01T20:49:58.598Z,13.62
2019-06-01T20:52:29.668Z,15.00
2019-06-01T20:55:00.777Z,13.55
2019-06-01T20:57:31.807Z,17.20
2019-06-01T21:00:03.622Z,19.30
2019-06-01T21:02:34.921Z,23.83
2019-06-01T21:05:07.443Z,18.32
2019-06-01T21:07:38.746Z,13.05
2019-06-01T21:10:11.221Z,18.05
2019-06-01T21:12:45.352Z,13.95
2019-06-01T21:15:17.330Z,12.60
2019-06-01T21:17:50.615Z,8.83
2019-06-01T21:20:28.599Z,14.40
2019-06-01T21:22:55.660Z,23.55
2019-06-01T21:25:26.862Z,18.92
2019-06-01T21:27:58.047Z,13.98
2019-06-01T21:30:29.294Z,18.35
2019-06-01T21:33:00.516Z,21.05
2019-06-01T21:35:31.774Z,10.38
2019-06-01T21:38:02.927Z,15.53
2019-06-01T21:40:34.029Z,11.00
2019-06-01T21:43:23.135Z,8.48
2019-06-01T21:45:37.961Z,8.38
2019-06-01T21:48:09.142Z,9.10
2019-06-01T21:50:40.195Z,6.58
2019-06-01T21:53:11.322Z,5.62
2019-06-01T21:55:42.346Z,10.50
2019-06-01T21:58:13.442Z,14.28
2019-06-01T22:00:46.148Z,9.50
2019-06-01T22:03:18.939Z,10.32
2019-06-01T22:05:50.061Z,7.87
2019-06-01T22:08:21.287Z,6.42
2019-06-01T22:10:52.413Z,6.95
2019-06-01T22:13:25.521Z,7.97
2019-06-01T22:15:56.554Z,5.28
2019-06-01T22:18:27.973Z,6.53
2019-06-01T22:20:59.379Z,6.83
2019-06-01T22:23:31.125Z,6.00
2019-06-01T22:26:02.386Z,7.40
2019-06-01T22:28:33.590Z,5.03
2019-06-01T22:31:04.684Z,5.20
2019-06-01T22:33:35.815Z,8.23
2019-06-01T22:36:06.935Z,5.60
2019-06-01T22:38:38.041Z,5.85
2019-06-01T22:41:09.178Z,10.13
2019-06-01T22:43:46.451Z,9.23
2019-06-01T22:46:13.091Z,12.05
2019-06-01T22:48:44.101Z,10.55
2019-06-01T22:51:15.179Z,10.58
2019-06-01T22:53:46.313Z,13.20
2019-06-01T22:56:18.965Z,14.98
2019-06-01T22:58:50.010Z,13.30
2019-06-01T23:01:21.155Z,11.53
2019-06-01T23:03:52.183Z,13.05
2019-06-01T23:06:23.269Z,13.43
2019-06-01T23:08:54.358Z,14.50
2019-06-01T23:11:25.435Z,12.18
2019-06-01T23:13:56.576Z,10.95
2019-06-01T23:16:27.688Z,14.63
2019-06-01T23:18:58.845Z,10.68
2019-06-01T23:21:30.021Z,14.35
2019-06-01T23:24:01.192Z,13.38
2019-06-01T23:26:32.534Z,10.50
2019-06-01T23:29:03.731Z,9.60
2019-06-01T23:31:34.698Z,10.75
2019-06-01T23:34:05.880Z,9.78
2019-06-01T23:36:36.879Z,11.53
2019-06-01T23:39:08.323Z,10.72
2019-06-01T23:41:39.457Z,9.98
2019-06-01T23:44:12.543Z,10.03
2019-06-01T23:46:45.600Z,12.93
2019-06-01T23:49:16.713Z,12.10
2019-06-01T23:51:48.022Z,14.07
2019-06-01T23:54:19.217Z,14.15
2019-06-01T23:56:50.254Z,13.10
2019-06-01T23:59:21.327Z,11.08
